createdAt,value
2018-08-30T00:00:14.041Z,8.27
2018-08-30T00:02:43.348Z,8.87
2018-08-30T00:05:12.705Z,8.60
2018-08-30T00:07:42.038Z,7.37
2018-08-30T00:10:12.548Z,7.30
2018-08-30T00:12:41.900Z,10.13
2018-08-30T00:15:11.329Z,7.17
2018-08-30T00:17:40.698Z,6.77
2018-08-30T00:20:10.166Z,8.00
2018-08-30T00:22:39.734Z,8.00
2018-08-30T00:25:09.068Z,7.40
2018-08-30T00:27:38.422Z,8.03
2018-08-30T00:30:07.874Z,7.60
2018-08-30T00:32:37.301Z,7.40
2018-08-30T00:35:06.629Z,9.07
2018-08-30T00:37:35.943Z,9.40
2018-08-30T00:40:05.350Z,8.00
2018-08-30T00:42:34.753Z,6.73
2018-08-30T00:45:04.086Z,7.90
2018-08-30T00:47:33.428Z,6.60
2018-08-30T00:50:02.893Z,7.33
2018-08-30T00:52:32.282Z,6.63
2018-08-30T00:55:01.618Z,6.90
2018-08-30T00:57:30.965Z,7.33
2018-08-30T01:00:00.368Z,8.80
2018-08-30T01:02:29.781Z,7.90
2018-08-30T01:04:59.227Z,7.63
2018-08-30T01:07:28.575Z,6.27
2018-08-30T01:09:58.008Z,7.73
2018-08-30T01:12:27.738Z,6.70
2018-08-30T01:14:57.280Z,6.90
2018-08-30T01:17:26.654Z,8.13
2018-08-30T01:19:56.021Z,6.80
2018-08-30T01:22:25.335Z,6.90
2018-08-30T01:24:54.701Z,8.40
2018-08-30T01:27:24.037Z,8.37
2018-08-30T01:29:53.459Z,7.13
2018-08-30T01:32:22.807Z,6.43
2018-08-30T01:34:52.165Z,6.23
2018-08-30T01:37:21.509Z,5.97
2018-08-30T01:39:50.916Z,6.30
2018-08-30T01:42:20.244Z,6.67
2018-08-30T01:44:49.617Z,6.53
2018-08-30T01:47:19.022Z,6.50
2018-08-30T01:49:48.446Z,7.00
2018-08-30T01:52:17.812Z,6.17
2018-08-30T01:54:47.179Z,7.27
2018-08-30T01:57:16.749Z,5.80
2018-08-30T01:59:46.134Z,6.00
2018-08-30T02:02:15.462Z,7.93
2018-08-30T02:04:44.841Z,6.80
2018-08-30T02:07:14.175Z,6.10
2018-08-30T02:09:43.579Z,7.10
2018-08-30T02:12:12.942Z,7.33
2018-08-30T02:14:42.301Z,5.97
2018-08-30T02:17:11.653Z,6.47
2018-08-30T02:19:41.106Z,6.30
2018-08-30T02:22:10.432Z,6.20
2018-08-30T02:24:39.774Z,5.23
2018-08-30T02:27:09.106Z,5.63
2018-08-30T02:29:38.513Z,5.20
2018-08-30T02:32:07.856Z,6.13
2018-08-30T02:34:37.215Z,5.33
2018-08-30T02:37:06.585Z,6.33
2018-08-30T02:39:35.996Z,6.40
2018-08-30T02:42:05.369Z,5.60
2018-08-30T02:44:34.749Z,6.33
2018-08-30T02:47:04.100Z,5.20
2018-08-30T02:49:33.478Z,6.67
2018-08-30T02:52:03.053Z,5.13
2018-08-30T02:54:32.576Z,4.80
2018-08-30T02:57:02.045Z,5.00
2018-08-30T02:59:31.374Z,5.27
2018-08-30T03:02:00.775Z,5.83
2018-08-30T03:04:30.097Z,5.33
2018-08-30T03:06:59.504Z,5.70
2018-08-30T03:09:28.834Z,6.07
2018-08-30T03:11:58.177Z,5.70
2018-08-30T03:14:27.763Z,4.70
2018-08-30T03:16:57.076Z,5.57
2018-08-30T03:19:26.408Z,5.37
2018-08-30T03:21:55.766Z,4.93
2018-08-30T03:24:25.085Z,5.57
2018-08-30T03:26:54.413Z,5.10
2018-08-30T03:29:23.745Z,4.70
2018-08-30T03:31:53.111Z,4.80
2018-08-30T03:34:22.472Z,4.47
2018-08-30T03:36:51.816Z,6.23
2018-08-30T03:39:21.256Z,5.17
2018-08-30T03:41:50.645Z,4.57
2018-08-30T03:44:20.061Z,4.63
2018-08-30T03:46:49.928Z,4.37
2018-08-30T03:49:19.406Z,5.27
2018-08-30T03:51:48.848Z,4.43
2018-08-30T03:54:18.188Z,6.10
2018-08-30T03:56:47.622Z,6.03
2018-08-30T03:59:17.029Z,5.30
2018-08-30T04:01:46.620Z,5.37
2018-08-30T04:04:16.138Z,4.90
2018-08-30T04:06:45.845Z,4.77
2018-08-30T04:09:15.411Z,4.70
2018-08-30T04:11:44.907Z,4.53
2018-08-30T04:14:14.381Z,5.53
2018-08-30T04:16:43.786Z,4.50
2018-08-30T04:19:13.203Z,5.10
2018-08-30T04:21:42.722Z,4.80
2018-08-30T04:24:12.350Z,5.37
2018-08-30T04:26:41.853Z,7.40
2018-08-30T04:29:11.281Z,7.57
2018-08-30T04:31:40.697Z,7.93
2018-08-30T04:34:10.154Z,9.47
2018-08-30T04:36:39.600Z,5.43
2018-08-30T04:39:09.710Z,5.33
2018-08-30T04:41:39.153Z,7.40
2018-08-30T04:44:08.565Z,7.13
2018-08-30T04:46:38.020Z,5.90
2018-08-30T04:49:07.458Z,7.73
2018-08-30T04:51:36.952Z,5.40
2018-08-30T04:54:06.976Z,7.73
2018-08-30T04:56:36.467Z,7.90
2018-08-30T04:59:05.900Z,8.43
2018-08-30T05:01:35.555Z,6.33
2018-08-30T05:04:05.382Z,5.00
2018-08-30T05:06:34.815Z,5.00
2018-08-30T05:09:04.669Z,7.87
2018-08-30T05:11:34.380Z,6.30
2018-08-30T05:14:03.840Z,6.93
2018-08-30T05:16:33.384Z,7.23
2018-08-30T05:19:03.026Z,5.53
2018-08-30T05:21:32.756Z,4.67
2018-08-30T05:24:02.161Z,6.67
2018-08-30T05:26:31.668Z,5.73
2018-08-30T05:29:01.152Z,6.50
2018-08-30T05:31:30.653Z,4.57
2018-08-30T05:34:00.070Z,4.50
2018-08-30T05:36:29.589Z,5.13
2018-08-30T05:38:59.099Z,6.33
2018-08-30T05:41:28.714Z,4.63
2018-08-30T05:43:58.510Z,4.73
2018-08-30T05:46:27.967Z,4.63
2018-08-30T05:48:57.487Z,4.30
2018-08-30T05:51:29.382Z,5.13
2018-08-30T05:53:59.177Z,4.33
2018-08-30T05:56:28.809Z,4.37
2018-08-30T05:58:58.594Z,4.93
2018-08-30T06:01:28.451Z,4.87
2018-08-30T06:03:57.945Z,5.23
2018-08-30T06:06:27.935Z,4.37
2018-08-30T06:08:57.353Z,4.80
2018-08-30T06:11:26.929Z,5.83
2018-08-30T06:13:56.332Z,4.33
2018-08-30T06:16:25.776Z,4.83
2018-08-30T06:18:55.339Z,6.20
2018-08-30T06:21:24.817Z,4.33
2018-08-30T06:23:54.434Z,4.37
2018-08-30T06:26:23.940Z,4.17
2018-08-30T06:28:53.482Z,4.53
2018-08-30T06:31:23.361Z,4.07
2018-08-30T06:33:52.833Z,3.73
2018-08-30T06:36:22.228Z,4.23
2018-08-30T06:38:51.921Z,4.93
2018-08-30T06:41:21.545Z,4.73
2018-08-30T06:43:52.749Z,4.63
2018-08-30T06:46:28.631Z,4.37
2018-08-30T06:48:58.211Z,5.00
2018-08-30T06:51:27.875Z,5.20
2018-08-30T06:53:57.383Z,4.47
2018-08-30T06:56:27.003Z,3.90
2018-08-30T06:58:56.739Z,4.97
2018-08-30T07:01:26.390Z,4.30
2018-08-30T07:03:55.912Z,4.50
2018-08-30T07:06:25.343Z,3.93
2018-08-30T07:08:54.865Z,4.47
2018-08-30T07:11:24.390Z,4.00
2018-08-30T07:13:53.861Z,4.90
2018-08-30T07:16:23.390Z,4.53
2018-08-30T07:18:52.918Z,4.00
2018-08-30T07:21:22.417Z,5.03
2018-08-30T07:23:51.892Z,4.93
2018-08-30T07:26:21.321Z,4.47
2018-08-30T07:28:51.129Z,4.07
2018-08-30T07:32:49.632Z,4.20
2018-08-30T07:35:19.144Z,4.30
2018-08-30T07:37:48.663Z,4.20
2018-08-30T07:40:18.255Z,4.53
2018-08-30T07:42:47.667Z,4.90
2018-08-30T07:45:17.172Z,6.03
2018-08-30T07:47:46.585Z,4.40
2018-08-30T07:50:16.190Z,4.70
2018-08-30T07:52:45.640Z,4.00
2018-08-30T07:55:15.080Z,4.90
2018-08-30T07:57:44.462Z,4.20
2018-08-30T08:00:14.032Z,4.90
2018-08-30T08:02:43.577Z,3.93
2018-08-30T08:05:13.041Z,4.17
2018-08-30T08:07:42.711Z,4.23
2018-08-30T08:10:12.188Z,3.93
2018-08-30T08:12:41.696Z,4.10
2018-08-30T08:15:11.422Z,4.43
2018-08-30T08:17:40.828Z,4.00
2018-08-30T08:20:10.428Z,4.87
2018-08-30T08:22:39.906Z,4.40
2018-08-30T08:25:09.342Z,5.23
2018-08-30T08:27:38.799Z,4.40
2018-08-30T08:30:08.600Z,4.77
2018-08-30T08:32:38.245Z,4.30
2018-08-30T08:35:07.907Z,4.20
2018-08-30T08:37:37.334Z,4.63
2018-08-30T08:40:07.089Z,4.60
2018-08-30T08:42:36.498Z,4.37
2018-08-30T08:45:06.449Z,4.30
2018-08-30T08:47:36.123Z,5.10
2018-08-30T08:50:05.932Z,4.13
2018-08-30T08:52:35.332Z,4.60
2018-08-30T08:55:04.836Z,4.13
2018-08-30T08:57:34.293Z,4.77
2018-08-30T09:00:03.806Z,4.40
2018-08-30T09:02:33.205Z,4.30
2018-08-30T09:05:02.722Z,4.40
2018-08-30T09:07:32.197Z,4.70
2018-08-30T09:10:01.705Z,4.23
2018-08-30T09:12:31.394Z,4.30
2018-08-30T09:15:00.863Z,4.77
2018-08-30T09:17:30.366Z,4.83
2018-08-30T09:19:59.841Z,4.70
2018-08-30T09:22:29.425Z,4.97
2018-08-30T09:24:58.922Z,4.40
2018-08-30T09:27:28.434Z,5.00
2018-08-30T09:29:59.014Z,5.40
2018-08-30T09:32:28.700Z,5.57
2018-08-30T09:34:58.308Z,4.90
2018-08-30T09:37:27.814Z,5.40
2018-08-30T09:39:57.395Z,4.80
2018-08-30T09:42:26.780Z,4.50
2018-08-30T09:44:56.363Z,5.40
2018-08-30T09:47:25.816Z,5.00
2018-08-30T09:49:55.446Z,5.73
2018-08-30T09:52:25.085Z,5.10
2018-08-30T09:54:54.496Z,4.60
2018-08-30T09:57:24.013Z,5.90
2018-08-30T09:59:53.590Z,4.83
2018-08-30T10:02:28.056Z,4.90
2018-08-30T10:04:57.507Z,4.47
2018-08-30T10:07:26.988Z,5.13
2018-08-30T10:09:56.564Z,5.17
2018-08-30T10:12:26.093Z,4.80
2018-08-30T10:14:55.669Z,5.07
2018-08-30T10:17:25.422Z,4.43
2018-08-30T10:19:55.757Z,4.83
2018-08-30T10:22:25.476Z,5.27
2018-08-30T10:24:55.414Z,5.07
2018-08-30T10:27:25.084Z,5.03
2018-08-30T10:29:54.641Z,5.00
2018-08-30T10:32:24.125Z,5.73
2018-08-30T10:34:53.887Z,5.10
2018-08-30T10:37:23.367Z,5.30
2018-08-30T10:39:52.848Z,5.13
2018-08-30T10:42:22.274Z,5.37
2018-08-30T10:44:51.795Z,5.60
2018-08-30T10:47:21.272Z,5.83
2018-08-30T10:49:50.858Z,5.00
2018-08-30T10:52:20.667Z,5.50
2018-08-30T10:54:50.174Z,5.00
2018-08-30T10:57:19.658Z,5.20
2018-08-30T10:59:49.200Z,4.90
2018-08-30T11:02:18.669Z,5.80
2018-08-30T11:04:48.195Z,6.33
2018-08-30T11:07:17.702Z,5.67
2018-08-30T11:09:47.343Z,5.40
2018-08-30T11:12:17.144Z,5.33
2018-08-30T11:14:46.601Z,5.93
2018-08-30T11:17:16.095Z,5.00
2018-08-30T11:19:45.715Z,5.30
2018-08-30T11:22:15.217Z,5.83
2018-08-30T11:24:44.680Z,5.53
2018-08-30T11:27:14.637Z,5.87
2018-08-30T11:29:44.633Z,5.27
2018-08-30T11:32:14.353Z,5.47
2018-08-30T11:34:43.821Z,5.40
2018-08-30T11:37:13.647Z,6.23
2018-08-30T11:39:43.186Z,5.93
2018-08-30T11:42:12.724Z,6.00
2018-08-30T11:44:42.197Z,5.40
2018-08-30T11:47:11.673Z,5.97
2018-08-30T11:49:41.153Z,5.60
2018-08-30T11:52:11.113Z,5.70
2018-08-30T11:54:40.688Z,5.63
2018-08-30T11:57:10.172Z,5.40
2018-08-30T11:59:39.760Z,6.20
2018-08-30T12:02:09.345Z,6.17
2018-08-30T12:04:39.744Z,6.07
2018-08-30T12:07:09.385Z,6.27
2018-08-30T12:09:38.914Z,5.63
2018-08-30T12:12:08.803Z,5.63
2018-08-30T12:14:38.210Z,6.17
2018-08-30T12:17:07.678Z,6.10
2018-08-30T12:19:37.476Z,5.77
2018-08-30T12:22:07.303Z,5.57
2018-08-30T12:24:36.788Z,6.00
2018-08-30T12:27:06.272Z,6.37
2018-08-30T12:29:35.813Z,4.97
2018-08-30T12:32:05.633Z,5.57
2018-08-30T12:34:35.358Z,5.27
2018-08-30T12:37:04.992Z,5.63
2018-08-30T12:39:34.767Z,5.53
2018-08-30T12:42:04.478Z,6.03
2018-08-30T12:44:34.088Z,5.70
2018-08-30T12:47:03.523Z,6.07
2018-08-30T12:49:32.980Z,6.33
2018-08-30T12:52:02.662Z,6.60
2018-08-30T12:54:32.223Z,6.10
2018-08-30T12:57:01.894Z,5.90
2018-08-30T12:59:36.587Z,6.20
2018-08-30T13:02:06.305Z,6.50
2018-08-30T13:04:36.269Z,5.40
2018-08-30T13:07:05.944Z,6.13
2018-08-30T13:09:35.669Z,6.10
2018-08-30T13:12:05.549Z,6.27
2018-08-30T13:14:34.978Z,6.20
2018-08-30T13:17:04.512Z,6.50
2018-08-30T13:19:34.431Z,5.80
2018-08-30T13:22:03.982Z,5.97
2018-08-30T13:24:33.817Z,5.93
2018-08-30T13:27:03.567Z,6.27
2018-08-30T13:29:33.142Z,5.67
2018-08-30T13:32:02.929Z,6.10
2018-08-30T13:34:32.744Z,6.10
2018-08-30T13:37:02.483Z,7.23
2018-08-30T13:39:32.337Z,6.23
2018-08-30T13:42:02.225Z,5.90
2018-08-30T13:44:31.899Z,6.20
2018-08-30T13:47:01.408Z,5.97
2018-08-30T13:49:30.978Z,6.27
2018-08-30T13:52:00.753Z,6.37
2018-08-30T13:54:30.834Z,6.17
2018-08-30T13:57:00.648Z,6.17
2018-08-30T13:59:30.616Z,5.80
2018-08-30T14:01:59.860Z,6.30
2018-08-30T14:04:29.662Z,6.03
2018-08-30T14:06:59.288Z,6.60
2018-08-30T14:09:29.171Z,6.40
2018-08-30T14:11:58.646Z,6.67
2018-08-30T14:14:28.379Z,6.07
2018-08-30T14:16:57.771Z,6.23
2018-08-30T14:19:27.232Z,6.07
2018-08-30T14:21:56.688Z,6.63
2018-08-30T14:24:26.197Z,6.50
2018-08-30T14:26:56.233Z,6.57
2018-08-30T14:29:25.757Z,6.53
2018-08-30T14:31:55.405Z,6.30
2018-08-30T14:34:25.184Z,6.27
2018-08-30T14:36:54.870Z,6.53
2018-08-30T14:39:24.856Z,6.10
2018-08-30T14:41:54.935Z,6.20
2018-08-30T14:44:24.305Z,6.53
2018-08-30T14:46:53.820Z,6.60
2018-08-30T14:49:23.273Z,6.47
2018-08-30T14:51:52.953Z,6.63
2018-08-30T14:54:22.454Z,6.63
2018-08-30T14:56:52.163Z,6.50
2018-08-30T14:59:21.757Z,6.50
2018-08-30T15:01:51.354Z,6.57
2018-08-30T15:04:20.860Z,6.50
2018-08-30T15:06:50.340Z,7.47
2018-08-30T15:09:20.003Z,9.00
2018-08-30T15:11:49.713Z,8.87
2018-08-30T15:14:19.308Z,10.03
2018-08-30T15:16:48.905Z,10.47
2018-08-30T15:19:18.713Z,10.67
2018-08-30T15:21:48.356Z,11.33
2018-08-30T15:24:17.811Z,9.60
2018-08-30T15:26:47.461Z,7.50
2018-08-30T15:29:17.135Z,9.47
2018-08-30T15:31:46.849Z,9.90
2018-08-30T15:34:16.351Z,7.10
2018-08-30T15:36:45.962Z,6.73
2018-08-30T15:39:15.581Z,6.93
2018-08-30T15:41:45.396Z,6.53
2018-08-30T15:44:15.197Z,7.73
2018-08-30T15:46:44.679Z,7.67
2018-08-30T15:49:14.156Z,7.33
2018-08-30T15:51:43.784Z,8.43
2018-08-30T15:54:13.373Z,7.53
2018-08-30T15:56:42.829Z,8.83
2018-08-30T15:59:12.346Z,7.10
2018-08-30T16:01:41.933Z,7.83
2018-08-30T16:04:11.444Z,13.13
2018-08-30T16:06:41.064Z,6.47
2018-08-30T16:09:12.190Z,8.37
2018-08-30T16:11:42.317Z,9.47
2018-08-30T16:14:11.834Z,7.50
2018-08-30T16:16:41.324Z,6.93
2018-08-30T16:19:10.827Z,7.60
2018-08-30T16:21:40.269Z,7.37
2018-08-30T16:24:09.928Z,7.60
2018-08-30T16:26:39.532Z,9.07
2018-08-30T16:29:09.072Z,6.73
2018-08-30T16:31:38.624Z,7.27
2018-08-30T16:34:08.133Z,8.83
2018-08-30T16:36:37.670Z,8.77
2018-08-30T16:39:09.738Z,7.07
2018-08-30T16:41:39.572Z,6.73
2018-08-30T16:44:09.495Z,8.23
2018-08-30T16:46:38.944Z,7.67
2018-08-30T16:49:08.909Z,6.93
2018-08-30T16:51:38.541Z,7.57
2018-08-30T16:54:07.974Z,8.90
2018-08-30T16:56:37.673Z,8.07
2018-08-30T16:59:07.451Z,9.23
2018-08-30T17:01:38.355Z,10.27
2018-08-30T17:04:07.802Z,12.27
2018-08-30T17:06:37.474Z,12.83
2018-08-30T17:09:08.315Z,17.77
2018-08-30T17:11:38.296Z,11.87
2018-08-30T17:14:08.035Z,20.70
2018-08-30T17:16:37.535Z,21.93
2018-08-30T17:19:17.665Z,21.93
2018-08-30T17:21:47.446Z,18.33
2018-08-30T17:24:16.967Z,17.50
2018-08-30T17:26:46.572Z,20.50
2018-08-30T17:29:16.060Z,13.80
2018-08-30T17:31:45.637Z,18.30
2018-08-30T17:34:15.333Z,15.27
2018-08-30T17:36:44.785Z,29.30
2018-08-30T17:39:14.448Z,35.53
2018-08-30T17:41:44.166Z,31.30
2018-08-30T17:44:13.639Z,33.87
2018-08-30T17:46:43.163Z,34.60
2018-08-30T17:49:12.609Z,22.97
2018-08-30T17:51:42.251Z,25.87
2018-08-30T17:54:11.768Z,27.57
2018-08-30T17:56:41.236Z,27.37
2018-08-30T17:59:10.856Z,23.10
2018-08-30T18:01:40.421Z,20.77
2018-08-30T18:04:09.841Z,16.67
2018-08-30T18:06:39.584Z,24.07
2018-08-30T18:09:09.513Z,17.77
2018-08-30T18:11:39.193Z,16.77
2018-08-30T18:14:08.826Z,17.20
2018-08-30T18:16:38.407Z,27.33
2018-08-30T18:19:07.970Z,17.80
2018-08-30T18:21:37.534Z,16.23
2018-08-30T18:24:07.133Z,17.43
2018-08-30T18:26:36.740Z,16.03
2018-08-30T18:29:06.151Z,17.70
2018-08-30T18:31:35.578Z,26.23
2018-08-30T18:34:05.021Z,16.53
2018-08-30T18:36:34.522Z,13.90
2018-08-30T18:39:04.464Z,18.40
2018-08-30T18:41:33.997Z,18.97
2018-08-30T18:44:03.527Z,22.23
2018-08-30T18:46:33.128Z,18.70
2018-08-30T18:49:02.598Z,14.53
2018-08-30T18:51:32.097Z,16.00
2018-08-30T18:54:01.678Z,18.77
2018-08-30T18:56:31.124Z,13.17
2018-08-30T18:59:00.605Z,12.13
2018-08-30T19:01:30.190Z,10.77
2018-08-30T19:03:59.671Z,12.43
2018-08-30T19:06:29.185Z,17.13
2018-08-30T19:08:58.679Z,13.50
2018-08-30T19:11:28.145Z,14.73
2018-08-30T19:13:57.669Z,13.00
2018-08-30T19:16:32.255Z,9.93
2018-08-30T19:19:10.321Z,9.87
2018-08-30T19:21:39.842Z,8.93
2018-08-30T19:24:13.353Z,10.23
2018-08-30T19:26:42.733Z,9.73
2018-08-30T19:29:12.181Z,8.03
2018-08-30T19:31:41.648Z,9.83
2018-08-30T19:34:11.273Z,10.73
2018-08-30T19:36:40.866Z,10.20
2018-08-30T19:39:11.754Z,10.27
2018-08-30T19:41:41.215Z,12.83
2018-08-30T19:44:11.220Z,7.57
2018-08-30T19:46:40.713Z,12.83
2018-08-30T19:49:10.248Z,9.10
2018-08-30T19:51:39.758Z,10.30
2018-08-30T19:54:09.333Z,9.73
2018-08-30T19:56:38.886Z,10.43
2018-08-30T19:59:08.373Z,12.27
2018-08-30T20:01:37.850Z,8.90
2018-08-30T20:04:07.333Z,9.37
2018-08-30T20:06:36.829Z,8.73
2018-08-30T20:09:07.083Z,9.93
2018-08-30T20:11:36.649Z,9.80
2018-08-30T20:14:06.133Z,8.73
2018-08-30T20:16:35.624Z,8.00
2018-08-30T20:19:05.162Z,9.40
2018-08-30T20:21:34.658Z,11.53
2018-08-30T20:24:04.121Z,9.50
2018-08-30T20:26:33.530Z,9.60
2018-08-30T20:29:02.861Z,9.73
2018-08-30T20:31:32.232Z,8.87
2018-08-30T20:34:01.560Z,9.53
2018-08-30T20:36:30.873Z,7.53
2018-08-30T20:39:00.193Z,8.63
2018-08-30T20:41:29.568Z,13.83
2018-08-30T20:43:58.920Z,9.47
2018-08-30T20:46:28.245Z,8.30
2018-08-30T20:48:57.828Z,8.67
2018-08-30T20:51:27.280Z,6.87
2018-08-30T20:53:56.733Z,8.77
2018-08-30T20:56:26.189Z,7.87
2018-08-30T20:58:55.521Z,7.87
2018-08-30T21:01:26.011Z,8.00
2018-08-30T21:03:55.337Z,9.00
2018-08-30T21:06:24.778Z,9.00
2018-08-30T21:08:54.125Z,9.93
2018-08-30T21:11:23.582Z,7.83
2018-08-30T21:13:52.909Z,7.67
2018-08-30T21:16:22.230Z,7.63
2018-08-30T21:18:51.559Z,8.67
2018-08-30T21:21:20.901Z,8.30
2018-08-30T21:23:50.361Z,8.10
2018-08-30T21:26:19.665Z,7.53
2018-08-30T21:28:48.992Z,9.17
2018-08-30T21:31:18.336Z,7.53
2018-08-30T21:33:47.826Z,9.00
2018-08-30T21:36:17.142Z,8.53
2018-08-30T21:38:46.486Z,7.10
2018-08-30T21:41:16.056Z,7.53
2018-08-30T21:43:45.437Z,7.60
2018-08-30T21:46:14.876Z,9.40
2018-08-30T21:48:44.392Z,7.33
2018-08-30T21:51:13.890Z,8.57
2018-08-30T21:53:43.325Z,7.43
2018-08-30T21:56:12.655Z,7.63
2018-08-30T21:58:42.011Z,7.70
2018-08-30T22:01:11.347Z,7.27
2018-08-30T22:03:40.685Z,8.67
2018-08-30T22:06:10.011Z,8.80
2018-08-30T22:08:39.380Z,7.40
2018-08-30T22:11:08.970Z,9.00
2018-08-30T22:13:38.288Z,7.50
2018-08-30T22:16:07.661Z,8.23
2018-08-30T22:18:37.009Z,7.50
2018-08-30T22:21:06.345Z,8.00
2018-08-30T22:23:35.644Z,8.00
2018-08-30T22:26:05.458Z,7.10
2018-08-30T22:28:34.785Z,7.63
2018-08-30T22:31:04.204Z,6.93
2018-08-30T22:33:33.541Z,7.50
2018-08-30T22:36:02.944Z,6.80
2018-08-30T22:38:32.268Z,9.93
2018-08-30T22:41:01.616Z,7.27
2018-08-30T22:43:30.966Z,8.00
2018-08-30T22:46:00.312Z,6.83
2018-08-30T22:48:29.688Z,7.77
2018-08-30T22:50:59.120Z,7.40
2018-08-30T22:53:28.629Z,7.40
2018-08-30T22:55:58.002Z,7.37
2018-08-30T22:58:27.688Z,6.77
2018-08-30T23:00:57.039Z,6.63
2018-08-30T23:03:26.361Z,7.93
2018-08-30T23:05:55.828Z,7.27
2018-08-30T23:08:25.145Z,7.67
2018-08-30T23:10:54.896Z,6.63
2018-08-30T23:13:24.314Z,8.23
2018-08-30T23:15:53.644Z,6.37
2018-08-30T23:18:22.962Z,6.67
2018-08-30T23:20:52.388Z,8.17
2018-08-30T23:23:21.700Z,6.17
2018-08-30T23:25:51.072Z,6.13
2018-08-30T23:28:20.443Z,8.33
2018-08-30T23:30:49.990Z,7.13
2018-08-30T23:33:19.308Z,6.60
2018-08-30T23:35:48.654Z,6.30
2018-08-30T23:38:17.988Z,7.10
2018-08-30T23:40:47.388Z,6.97
2018-08-30T23:43:16.714Z,6.63
2018-08-30T23:45:46.052Z,8.07
2018-08-30T23:48:15.388Z,7.27
2018-08-30T23:50:44.901Z,7.10
2018-08-30T23:53:14.268Z,6.60
2018-08-30T23:55:43.650Z,7.10
2018-08-30T23:58:23.854Z,7.83
